sensor_id;sensor_type;location;lat;lon;timestamp;pressure;altitude;pressure_sealevel;temperature;humidity
61676;BME280;47574;52.090;5.244;2023-03-26T00:00:58;100680.0;;;13.95;58.25
61676;BME280;47574;52.090;5.244;2023-03-26T00:02:34;100680.0;;;13.81;58.84
61676;BME280;47574;52.090;5.244;2023-03-26T00:04:11;100680.0;;;13.79;58.99
61676;BME280;47574;52.090;5.244;2023-03-26T00:05:48;100680.0;;;13.73;59.17
61676;BME280;47574;52.090;5.244;2023-03-26T00:09:01;100676.0;;;14.05;58.31
61676;BME280;47574;52.090;5.244;2023-03-26T00:10:41;100672.0;;;13.8;58.94
61676;BME280;47574;52.090;5.244;2023-03-26T00:12:17;100671.0;;;13.98;58.78
61676;BME280;47574;52.090;5.244;2023-03-26T00:15:32;100676.0;;;14.08;58.41
61676;BME280;47574;52.090;5.244;2023-03-26T00:17:10;100675.0;;;13.92;58.81
61676;BME280;47574;52.090;5.244;2023-03-26T00:18:46;100676.0;;;13.79;59.25
61676;BME280;47574;52.090;5.244;2023-03-26T00:20:22;100680.0;;;14.02;59.09
61676;BME280;47574;52.090;5.244;2023-03-26T00:23:35;100673.0;;;13.81;59.45
61676;BME280;47574;52.090;5.244;2023-03-26T00:25:11;100669.0;;;13.89;59.42
61676;BME280;47574;52.090;5.244;2023-03-26T00:26:49;100667.0;;;13.87;59.45
61676;BME280;47574;52.090;5.244;2023-03-26T00:30:03;100666.0;;;13.75;59.82
61676;BME280;47574;52.090;5.244;2023-03-26T00:31:39;100664.0;;;13.86;59.78
61676;BME280;47574;52.090;5.244;2023-03-26T00:33:16;100655.0;;;13.81;59.84
61676;BME280;47574;52.090;5.244;2023-03-26T00:36:30;100655.0;;;14.1;59.11
61676;BME280;47574;52.090;5.244;2023-03-26T00:38:07;100649.0;;;13.99;59.55
61676;BME280;47574;52.090;5.244;2023-03-26T00:39:43;100647.0;;;13.93;59.76
61676;BME280;47574;52.090;5.244;2023-03-26T00:41:20;100644.0;;;13.9;59.99
61676;BME280;47574;52.090;5.244;2023-03-26T00:44:34;100639.0;;;14.11;59.52
61676;BME280;47574;52.090;5.244;2023-03-26T00:46:11;100643.0;;;14.08;59.51
61676;BME280;47574;52.090;5.244;2023-03-26T00:47:47;100640.0;;;14.03;59.83
61676;BME280;47574;52.090;5.244;2023-03-26T00:51:00;100633.0;;;14.32;59.26
61676;BME280;47574;52.090;5.244;2023-03-26T00:52:36;100635.0;;;14.11;59.71
61676;BME280;47574;52.090;5.244;2023-03-26T00:54:12;100637.0;;;14.26;59.43
61676;BME280;47574;52.090;5.244;2023-03-26T00:57:25;100637.0;;;14.11;59.85
61676;BME280;47574;52.090;5.244;2023-03-26T00:59:01;100636.0;;;14.33;59.07
61676;BME280;47574;52.090;5.244;2023-03-26T01:00:43;100633.0;;;14.25;59.3
61676;BME280;47574;52.090;5.244;2023-03-26T01:02:21;100633.0;;;14.19;59.56
61676;BME280;47574;52.090;5.244;2023-03-26T01:05:59;100630.0;;;14.19;59.67
61676;BME280;47574;52.090;5.244;2023-03-26T01:07:36;100627.0;;;14.31;59.36
61676;BME280;47574;52.090;5.244;2023-03-26T01:09:14;100620.0;;;14.37;59.19
61676;BME280;47574;52.090;5.244;2023-03-26T01:10:54;100618.0;;;14.37;59.22
61676;BME280;47574;52.090;5.244;2023-03-26T01:14:10;100610.0;;;14.09;60.14
61676;BME280;47574;52.090;5.244;2023-03-26T01:15:49;100611.0;;;14.37;59.46
61676;BME280;47574;52.090;5.244;2023-03-26T01:17:27;100610.0;;;14.24;59.82
61676;BME280;47574;52.090;5.244;2023-03-26T01:19:06;100607.0;;;14.25;59.79
61676;BME280;47574;52.090;5.244;2023-03-26T01:22:26;100606.0;;;14.51;59.02
61676;BME280;47574;52.090;5.244;2023-03-26T01:24:04;100595.0;;;14.24;59.81
61676;BME280;47574;52.090;5.244;2023-03-26T01:25:44;100593.0;;;14.32;59.58
61676;BME280;47574;52.090;5.244;2023-03-26T01:27:30;100593.0;;;14.36;59.38
61676;BME280;47574;52.090;5.244;2023-03-26T01:31:01;100589.0;;;14.26;59.89
61676;BME280;47574;52.090;5.244;2023-03-26T01:32:50;100582.0;;;14.18;60.0
61676;BME280;47574;52.090;5.244;2023-03-26T01:34:39;100584.0;;;14.07;60.37
61676;BME280;47574;52.090;5.244;2023-03-26T01:36:24;100584.0;;;14.12;60.29
61676;BME280;47574;52.090;5.244;2023-03-26T01:38:14;100582.0;;;14.14;60.19
61676;BME280;47574;52.090;5.244;2023-03-26T01:40:00;100584.0;;;14.33;59.6
61676;BME280;47574;52.090;5.244;2023-03-26T01:43:28;100576.0;;;14.26;59.79
61676;BME280;47574;52.090;5.244;2023-03-26T01:45:10;100573.0;;;14.15;60.11
61676;BME280;47574;52.090;5.244;2023-03-26T01:46:51;100572.0;;;14.32;59.79
61676;BME280;47574;52.090;5.244;2023-03-26T01:48:29;100570.0;;;14.42;59.34
61676;BME280;47574;52.090;5.244;2023-03-26T01:51:46;100569.0;;;14.27;59.71
61676;BME280;47574;52.090;5.244;2023-03-26T01:53:23;100568.0;;;14.45;59.94
61676;BME280;47574;52.090;5.244;2023-03-26T01:55:00;100564.0;;;14.58;59.89
61676;BME280;47574;52.090;5.244;2023-03-26T01:56:44;100561.0;;;14.66;59.72
61676;BME280;47574;52.090;5.244;2023-03-26T02:00:18;100556.0;;;14.59;59.72
61676;BME280;47574;52.090;5.244;2023-03-26T02:02:06;100553.0;;;14.68;59.68
61676;BME280;47574;52.090;5.244;2023-03-26T02:03:51;100550.0;;;14.69;59.73
61676;BME280;47574;52.090;5.244;2023-03-26T02:05:30;100548.0;;;14.7;59.5
61676;BME280;47574;52.090;5.244;2023-03-26T02:07:13;100544.0;;;14.72;59.7
61676;BME280;47574;52.090;5.244;2023-03-26T02:10:39;100542.0;;;14.79;59.61
61676;BME280;47574;52.090;5.244;2023-03-26T02:12:18;100541.0;;;14.84;59.48
61676;BME280;47574;52.090;5.244;2023-03-26T02:13:56;100535.0;;;14.85;59.51
61676;BME280;47574;52.090;5.244;2023-03-26T02:15:34;100526.0;;;14.87;59.25
61676;BME280;47574;52.090;5.244;2023-03-26T02:18:48;100526.0;;;14.9;59.33
61676;BME280;47574;52.090;5.244;2023-03-26T02:20:25;100519.0;;;14.92;59.33
61676;BME280;47574;52.090;5.244;2023-03-26T02:22:01;100521.0;;;14.94;59.11
61676;BME280;47574;52.090;5.244;2023-03-26T02:25:19;100515.0;;;15.07;58.8
61676;BME280;47574;52.090;5.244;2023-03-26T02:26:56;100510.0;;;14.99;59.08
61676;BME280;47574;52.090;5.244;2023-03-26T02:28:33;100508.0;;;14.89;59.06
61676;BME280;47574;52.090;5.244;2023-03-26T02:30:12;100507.0;;;14.86;59.33
61676;BME280;47574;52.090;5.244;2023-03-26T02:33:26;100507.0;;;14.94;59.26
61676;BME280;47574;52.090;5.244;2023-03-26T02:35:04;100506.0;;;14.88;58.98
61676;BME280;47574;52.090;5.244;2023-03-26T02:36:40;100506.0;;;14.82;59.05
61676;BME280;47574;52.090;5.244;2023-03-26T02:39:53;100505.0;;;14.78;59.43
61676;BME280;47574;52.090;5.244;2023-03-26T02:41:30;100499.0;;;14.84;59.5
61676;BME280;47574;52.090;5.244;2023-03-26T02:43:06;100501.0;;;14.92;59.22
61676;BME280;47574;52.090;5.244;2023-03-26T02:44:42;100497.0;;;14.87;59.24
61676;BME280;47574;52.090;5.244;2023-03-26T02:47:54;100496.0;;;14.99;58.85
61676;BME280;47574;52.090;5.244;2023-03-26T02:49:30;100493.0;;;14.99;58.76
61676;BME280;47574;52.090;5.244;2023-03-26T02:54:20;100493.0;;;14.86;59.14
61676;BME280;47574;52.090;5.244;2023-03-26T02:55:58;100492.0;;;14.77;59.2
61676;BME280;47574;52.090;5.244;2023-03-26T02:57:35;100490.0;;;14.83;59.0
61676;BME280;47574;52.090;5.244;2023-03-26T03:00:47;100491.0;;;15.02;58.67
61676;BME280;47574;52.090;5.244;2023-03-26T03:02:23;100491.0;;;14.97;58.63
61676;BME280;47574;52.090;5.244;2023-03-26T03:04:01;100492.0;;;14.89;58.66
61676;BME280;47574;52.090;5.244;2023-03-26T03:05:37;100486.0;;;14.75;59.07
61676;BME280;47574;52.090;5.244;2023-03-26T03:08:51;100486.0;;;14.86;58.89
61676;BME280;47574;52.090;5.244;2023-03-26T03:10:27;100483.0;;;14.83;58.68
61676;BME280;47574;52.090;5.244;2023-03-26T03:12:04;100480.0;;;14.64;58.89
61676;BME280;47574;52.090;5.244;2023-03-26T03:15:20;100480.0;;;14.73;58.64
61676;BME280;47574;52.090;5.244;2023-03-26T03:16:56;100475.0;;;14.82;58.33
61676;BME280;47574;52.090;5.244;2023-03-26T03:18:33;100475.0;;;14.75;58.74
61676;BME280;47574;52.090;5.244;2023-03-26T03:21:47;100477.0;;;14.85;58.64
61676;BME280;47574;52.090;5.244;2023-03-26T03:23:23;100471.0;;;14.74;58.41
61676;BME280;47574;52.090;5.244;2023-03-26T03:24:59;100470.0;;;14.64;58.68
61676;BME280;47574;52.090;5.244;2023-03-26T03:26:35;100473.0;;;14.93;58.51
61676;BME280;47574;52.090;5.244;2023-03-26T03:29:49;100473.0;;;14.94;58.06
61676;BME280;47574;52.090;5.244;2023-03-26T03:31:25;100470.0;;;15.06;57.63
61676;BME280;47574;52.090;5.244;2023-03-26T03:33:02;100469.0;;;14.95;57.99
61676;BME280;47574;52.090;5.244;2023-03-26T03:36:17;100469.0;;;14.6;58.55
61676;BME280;47574;52.090;5.244;2023-03-26T03:37:54;100464.0;;;14.72;58.43
61676;BME280;47574;52.090;5.244;2023-03-26T03:39:30;100461.0;;;14.65;58.71
61676;BME280;47574;52.090;5.244;2023-03-26T03:42:44;100458.0;;;14.62;58.54
61676;BME280;47574;52.090;5.244;2023-03-26T03:44:21;100462.0;;;14.34;59.23
61676;BME280;47574;52.090;5.244;2023-03-26T03:45:57;100457.0;;;14.71;58.6
61676;BME280;47574;52.090;5.244;2023-03-26T03:47:34;100455.0;;;14.66;58.68
61676;BME280;47574;52.090;5.244;2023-03-26T03:50:46;100457.0;;;14.87;58.36
61676;BME280;47574;52.090;5.244;2023-03-26T03:52:22;100456.0;;;14.77;58.69
61676;BME280;47574;52.090;5.244;2023-03-26T03:53:59;100455.0;;;14.78;58.72
61676;BME280;47574;52.090;5.244;2023-03-26T03:57:12;100455.0;;;14.98;58.17
61676;BME280;47574;52.090;5.244;2023-03-26T03:58:49;100450.0;;;14.92;58.47
61676;BME280;47574;52.090;5.244;2023-03-26T04:00:25;100447.0;;;14.89;58.2
61676;BME280;47574;52.090;5.244;2023-03-26T04:03:38;100445.0;;;15.01;58.01
61676;BME280;47574;52.090;5.244;2023-03-26T04:05:15;100439.0;;;15.09;57.94
61676;BME280;47574;52.090;5.244;2023-03-26T04:06:51;100430.0;;;15.14;57.86
61676;BME280;47574;52.090;5.244;2023-03-26T04:08:28;100426.0;;;15.09;57.93
61676;BME280;47574;52.090;5.244;2023-03-26T04:11:44;100421.0;;;15.16;58.19
61676;BME280;47574;52.090;5.244;2023-03-26T04:13:20;100421.0;;;15.11;57.86
61676;BME280;47574;52.090;5.244;2023-03-26T04:14:57;100426.0;;;15.09;58.25
61676;BME280;47574;52.090;5.244;2023-03-26T04:18:10;100424.0;;;15.12;57.86
61676;BME280;47574;52.090;5.244;2023-03-26T04:19:46;100422.0;;;15.11;58.02
61676;BME280;47574;52.090;5.244;2023-03-26T04:21:23;100417.0;;;15.13;57.91
61676;BME280;47574;52.090;5.244;2023-03-26T04:22:59;100416.0;;;15.13;58.22
61676;BME280;47574;52.090;5.244;2023-03-26T04:26:14;100412.0;;;15.03;57.83
61676;BME280;47574;52.090;5.244;2023-03-26T04:27:51;100407.0;;;15.1;58.05
61676;BME280;47574;52.090;5.244;2023-03-26T04:29:29;100405.0;;;15.09;57.77
61676;BME280;47574;52.090;5.244;2023-03-26T04:32:55;100402.0;;;15.26;57.72
61676;BME280;47574;52.090;5.244;2023-03-26T04:34:32;100400.0;;;15.18;57.46
61676;BME280;47574;52.090;5.244;2023-03-26T04:36:10;100393.0;;;14.98;58.16
61676;BME280;47574;52.090;5.244;2023-03-26T04:37:46;100389.0;;;15.1;57.69
61676;BME280;47574;52.090;5.244;2023-03-26T04:40:59;100387.0;;;15.1;57.97
61676;BME280;47574;52.090;5.244;2023-03-26T04:42:37;100384.0;;;15.15;57.57
61676;BME280;47574;52.090;5.244;2023-03-26T04:44:14;100383.0;;;15.07;57.91
61676;BME280;47574;52.090;5.244;2023-03-26T04:47:27;100378.0;;;15.17;57.86
61676;BME280;47574;52.090;5.244;2023-03-26T04:49:03;100375.0;;;15.07;57.79
61676;BME280;47574;52.090;5.244;2023-03-26T04:50:40;100375.0;;;15.08;57.84
61676;BME280;47574;52.090;5.244;2023-03-26T04:52:17;100370.0;;;15.24;57.35
61676;BME280;47574;52.090;5.244;2023-03-26T04:55:40;100368.0;;;15.08;57.74
61676;BME280;47574;52.090;5.244;2023-03-26T04:57:21;100365.0;;;15.12;57.8
61676;BME280;47574;52.090;5.244;2023-03-26T04:59:01;100362.0;;;15.02;57.85
61676;BME280;47574;52.090;5.244;2023-03-26T05:02:13;100359.0;;;14.87;58.42
61676;BME280;47574;52.090;5.244;2023-03-26T05:03:49;100355.0;;;14.81;58.43
61676;BME280;47574;52.090;5.244;2023-03-26T05:05:27;100351.0;;;14.87;58.23
61676;BME280;47574;52.090;5.244;2023-03-26T05:07:04;100345.0;;;14.98;57.9
61676;BME280;47574;52.090;5.244;2023-03-26T05:10:17;100345.0;;;14.98;58.03
61676;BME280;47574;52.090;5.244;2023-03-26T05:11:53;100344.0;;;14.93;58.09
61676;BME280;47574;52.090;5.244;2023-03-26T05:13:29;100344.0;;;14.97;58.23
61676;BME280;47574;52.090;5.244;2023-03-26T05:16:45;100345.0;;;15.02;58.0
61676;BME280;47574;52.090;5.244;2023-03-26T05:18:22;100341.0;;;14.97;58.5
61676;BME280;47574;52.090;5.244;2023-03-26T05:19:59;100337.0;;;15.14;58.33
61676;BME280;47574;52.090;5.244;2023-03-26T05:21:36;100337.0;;;15.1;58.21
61676;BME280;47574;52.090;5.244;2023-03-26T05:24:48;100330.0;;;15.19;57.73
61676;BME280;47574;52.090;5.244;2023-03-26T05:26:24;100331.0;;;15.04;58.04
61676;BME280;47574;52.090;5.244;2023-03-26T05:28:01;100330.0;;;15.04;58.08
61676;BME280;47574;52.090;5.244;2023-03-26T05:31:17;100327.0;;;15.06;57.99
61676;BME280;47574;52.090;5.244;2023-03-26T05:32:53;100325.0;;;14.98;58.05
61676;BME280;47574;52.090;5.244;2023-03-26T05:34:29;100321.0;;;15.0;58.11
61676;BME280;47574;52.090;5.244;2023-03-26T05:37:46;100319.0;;;14.72;58.75
61676;BME280;47574;52.090;5.244;2023-03-26T05:39:23;100316.0;;;14.77;58.47
61676;BME280;47574;52.090;5.244;2023-03-26T05:41:00;100315.0;;;14.85;58.47
61676;BME280;47574;52.090;5.244;2023-03-26T05:42:38;100312.0;;;14.74;58.11
61676;BME280;47574;52.090;5.244;2023-03-26T05:45:52;100307.0;;;14.78;58.42
61676;BME280;47574;52.090;5.244;2023-03-26T05:47:29;100305.0;;;14.9;57.97
61676;BME280;47574;52.090;5.244;2023-03-26T05:49:05;100300.0;;;14.97;57.97
61676;BME280;47574;52.090;5.244;2023-03-26T05:52:17;100298.0;;;14.77;58.16
61676;BME280;47574;52.090;5.244;2023-03-26T05:53:53;100298.0;;;14.83;57.97
61676;BME280;47574;52.090;5.244;2023-03-26T05:55:30;100295.0;;;14.66;58.45
61676;BME280;47574;52.090;5.244;2023-03-26T05:58:42;100294.0;;;14.72;58.13
61676;BME280;47574;52.090;5.244;2023-03-26T06:00:18;100293.0;;;14.66;58.51
61676;BME280;47574;52.090;5.244;2023-03-26T06:01:54;100286.0;;;14.72;58.3
61676;BME280;47574;52.090;5.244;2023-03-26T06:03:31;100281.0;;;14.8;58.02
61676;BME280;47574;52.090;5.244;2023-03-26T06:06:45;100285.0;;;14.84;58.11
61676;BME280;47574;52.090;5.244;2023-03-26T06:08:21;100280.0;;;14.81;57.89
61676;BME280;47574;52.090;5.244;2023-03-26T06:09:57;100278.0;;;14.72;58.13
61676;BME280;47574;52.090;5.244;2023-03-26T06:13:09;100281.0;;;14.71;58.21
61676;BME280;47574;52.090;5.244;2023-03-26T06:14:45;100282.0;;;14.76;58.43
61676;BME280;47574;52.090;5.244;2023-03-26T06:16:21;100275.0;;;14.75;58.06
61676;BME280;47574;52.090;5.244;2023-03-26T06:19:35;100273.0;;;14.67;58.59
61676;BME280;47574;52.090;5.244;2023-03-26T06:21:12;100266.0;;;14.78;58.09
61676;BME280;47574;52.090;5.244;2023-03-26T06:22:48;100264.0;;;15.0;57.92
61676;BME280;47574;52.090;5.244;2023-03-26T06:24:24;100262.0;;;14.99;57.85
61676;BME280;47574;52.090;5.244;2023-03-26T06:27:37;100260.0;;;14.77;58.45
61676;BME280;47574;52.090;5.244;2023-03-26T06:29:13;100259.0;;;14.77;58.47
61676;BME280;47574;52.090;5.244;2023-03-26T06:30:50;100257.0;;;14.62;58.61
61676;BME280;47574;52.090;5.244;2023-03-26T06:34:03;100255.0;;;14.77;58.53
61676;BME280;47574;52.090;5.244;2023-03-26T06:35:39;100255.0;;;14.71;58.45
61676;BME280;47574;52.090;5.244;2023-03-26T06:37:15;100251.0;;;14.7;58.44
61676;BME280;47574;52.090;5.244;2023-03-26T06:40:28;100251.0;;;14.69;58.56
61676;BME280;47574;52.090;5.244;2023-03-26T06:42:06;100250.0;;;14.79;58.17
61676;BME280;47574;52.090;5.244;2023-03-26T06:43:43;100250.0;;;14.83;58.25
61676;BME280;47574;52.090;5.244;2023-03-26T06:45:19;100249.0;;;14.68;58.64
61676;BME280;47574;52.090;5.244;2023-03-26T06:48:31;100247.0;;;14.67;58.6
61676;BME280;47574;52.090;5.244;2023-03-26T06:50:08;100252.0;;;14.61;58.64
61676;BME280;47574;52.090;5.244;2023-03-26T06:51:45;100255.0;;;14.64;58.97
61676;BME280;47574;52.090;5.244;2023-03-26T06:54:59;100253.0;;;14.62;58.72
61676;BME280;47574;52.090;5.244;2023-03-26T06:56:35;100253.0;;;14.68;58.98
61676;BME280;47574;52.090;5.244;2023-03-26T06:58:12;100255.0;;;14.63;58.81
61676;BME280;47574;52.090;5.244;2023-03-26T07:01:24;100251.0;;;14.8;58.39
61676;BME280;47574;52.090;5.244;2023-03-26T07:03:02;100251.0;;;14.72;58.29
61676;BME280;47574;52.090;5.244;2023-03-26T07:04:38;100250.0;;;14.74;58.36
61676;BME280;47574;52.090;5.244;2023-03-26T07:06:14;100252.0;;;14.73;58.66
61676;BME280;47574;52.090;5.244;2023-03-26T07:09:26;100255.0;;;14.77;58.66
61676;BME280;47574;52.090;5.244;2023-03-26T07:11:03;100250.0;;;14.85;58.53
61676;BME280;47574;52.090;5.244;2023-03-26T07:12:40;100250.0;;;14.94;58.14
61676;BME280;47574;52.090;5.244;2023-03-26T07:15:53;100250.0;;;14.8;58.53
61676;BME280;47574;52.090;5.244;2023-03-26T07:17:29;100249.0;;;15.1;58.11
61676;BME280;47574;52.090;5.244;2023-03-26T07:19:05;100245.0;;;14.94;58.43
61676;BME280;47574;52.090;5.244;2023-03-26T07:22:20;100245.0;;;14.93;58.28
61676;BME280;47574;52.090;5.244;2023-03-26T07:23:58;100243.0;;;15.01;58.26
61676;BME280;47574;52.090;5.244;2023-03-26T07:25:36;100246.0;;;14.85;58.65
61676;BME280;47574;52.090;5.244;2023-03-26T07:27:24;100252.0;;;15.05;58.51
61676;BME280;47574;52.090;5.244;2023-03-26T07:29:15;100246.0;;;14.99;58.31
61676;BME280;47574;52.090;5.244;2023-03-26T07:33:02;100249.0;;;14.92;58.33
61676;BME280;47574;52.090;5.244;2023-03-26T07:34:49;100251.0;;;15.08;58.32
61676;BME280;47574;52.090;5.244;2023-03-26T07:36:32;100249.0;;;15.12;57.86
61676;BME280;47574;52.090;5.244;2023-03-26T07:38:23;100248.0;;;14.93;58.48
61676;BME280;47574;52.090;5.244;2023-03-26T07:40:16;100246.0;;;14.96;58.49
61676;BME280;47574;52.090;5.244;2023-03-26T07:41:58;100253.0;;;14.96;58.6
61676;BME280;47574;52.090;5.244;2023-03-26T07:46:03;100247.0;;;14.98;58.03
61676;BME280;47574;52.090;5.244;2023-03-26T07:49:22;100245.0;;;14.98;58.0
61676;BME280;47574;52.090;5.244;2023-03-26T07:51:00;100246.0;;;15.01;57.79
61676;BME280;47574;52.090;5.244;2023-03-26T07:52:37;100242.0;;;14.99;57.71
61676;BME280;47574;52.090;5.244;2023-03-26T07:55:52;100241.0;;;14.98;58.04
61676;BME280;47574;52.090;5.244;2023-03-26T07:57:39;100240.0;;;15.0;57.78
61676;BME280;47574;52.090;5.244;2023-03-26T07:59:28;100240.0;;;14.94;58.11
61676;BME280;47574;52.090;5.244;2023-03-26T08:01:11;100236.0;;;15.06;57.36
61676;BME280;47574;52.090;5.244;2023-03-26T08:03:29;100239.0;;;14.91;57.75
61676;BME280;47574;52.090;5.244;2023-03-26T08:05:48;100237.0;;;14.78;58.35
61676;BME280;47574;52.090;5.244;2023-03-26T08:07:34;100238.0;;;14.92;58.21
61676;BME280;47574;52.090;5.244;2023-03-26T08:09:22;100233.0;;;14.9;57.93
61676;BME280;47574;52.090;5.244;2023-03-26T08:11:16;100236.0;;;14.93;58.22
61676;BME280;47574;52.090;5.244;2023-03-26T08:14:58;100235.0;;;14.95;58.13
61676;BME280;47574;52.090;5.244;2023-03-26T08:16:42;100233.0;;;15.09;57.95
61676;BME280;47574;52.090;5.244;2023-03-26T08:18:30;100230.0;;;14.98;58.08
61676;BME280;47574;52.090;5.244;2023-03-26T08:20:25;100230.0;;;15.01;57.96
61676;BME280;47574;52.090;5.244;2023-03-26T08:22:11;100230.0;;;15.08;58.07
61676;BME280;47574;52.090;5.244;2023-03-26T08:23:57;100231.0;;;15.06;58.29
61676;BME280;47574;52.090;5.244;2023-03-26T08:27:34;100227.0;;;14.95;58.19
61676;BME280;47574;52.090;5.244;2023-03-26T08:29:17;100230.0;;;14.93;58.4
61676;BME280;47574;52.090;5.244;2023-03-26T08:31:01;100230.0;;;15.05;58.16
61676;BME280;47574;52.090;5.244;2023-03-26T08:32:38;100224.0;;;15.12;58.15
61676;BME280;47574;52.090;5.244;2023-03-26T08:34:15;100228.0;;;15.07;58.3
61676;BME280;47574;52.090;5.244;2023-03-26T08:37:28;100226.0;;;15.09;58.73
61676;BME280;47574;52.090;5.244;2023-03-26T08:39:04;100224.0;;;15.32;57.71
61676;BME280;47574;52.090;5.244;2023-03-26T08:42:19;100227.0;;;15.27;57.57
61676;BME280;47574;52.090;5.244;2023-03-26T08:48:31;100228.0;;;15.35;57.3
61676;BME280;47574;52.090;5.244;2023-03-26T08:54:41;100230.0;;;15.26;57.77
61676;BME280;47574;52.090;5.244;2023-03-26T08:57:01;100224.0;;;15.33;57.64
61676;BME280;47574;52.090;5.244;2023-03-26T09:02:58;100231.0;;;15.34;57.94
61676;BME280;47574;52.090;5.244;2023-03-26T09:05:44;100227.0;;;15.25;57.59
61676;BME280;47574;52.090;5.244;2023-03-26T09:10:35;100226.0;;;15.21;57.71
61676;BME280;47574;52.090;5.244;2023-03-26T09:12:36;100231.0;;;14.97;58.11
61676;BME280;47574;52.090;5.244;2023-03-26T09:18:42;100232.0;;;15.17;58.07
61676;BME280;47574;52.090;5.244;2023-03-26T09:26:23;100228.0;;;15.1;58.79
61676;BME280;47574;52.090;5.244;2023-03-26T09:28:17;100227.0;;;15.14;58.57
61676;BME280;47574;52.090;5.244;2023-03-26T09:31:02;100231.0;;;15.15;58.35
61676;BME280;47574;52.090;5.244;2023-03-26T09:33:40;100230.0;;;14.96;59.03
61676;BME280;47574;52.090;5.244;2023-03-26T09:35:49;100232.0;;;14.87;59.26
61676;BME280;47574;52.090;5.244;2023-03-26T09:37:36;100235.0;;;14.83;59.25
61676;BME280;47574;52.090;5.244;2023-03-26T09:39:26;100232.0;;;14.88;59.16
61676;BME280;47574;52.090;5.244;2023-03-26T09:41:15;100232.0;;;14.61;59.5
61676;BME280;47574;52.090;5.244;2023-03-26T09:44:55;100233.0;;;14.66;59.55
61676;BME280;47574;52.090;5.244;2023-03-26T09:48:41;100235.0;;;14.81;59.59
61676;BME280;47574;52.090;5.244;2023-03-26T09:51:28;100234.0;;;14.64;60.01
61676;BME280;47574;52.090;5.244;2023-03-26T09:53:46;100241.0;;;14.53;60.36
61676;BME280;47574;52.090;5.244;2023-03-26T09:56:13;100248.0;;;14.53;59.82
61676;BME280;47574;52.090;5.244;2023-03-26T09:58:06;100243.0;;;14.69;59.77
61676;BME280;47574;52.090;5.244;2023-03-26T10:00:16;100245.0;;;14.64;59.79
61676;BME280;47574;52.090;5.244;2023-03-26T10:02:11;100246.0;;;14.88;58.9
61676;BME280;47574;52.090;5.244;2023-03-26T10:05:58;100251.0;;;14.66;59.66
61676;BME280;47574;52.090;5.244;2023-03-26T10:07:52;100252.0;;;14.68;59.48
61676;BME280;47574;52.090;5.244;2023-03-26T10:09:44;100257.0;;;14.74;59.26
61676;BME280;47574;52.090;5.244;2023-03-26T10:11:38;100258.0;;;14.62;59.22
61676;BME280;47574;52.090;5.244;2023-03-26T10:13:39;100262.0;;;14.48;59.19
61676;BME280;47574;52.090;5.244;2023-03-26T10:15:31;100259.0;;;14.59;59.02
61676;BME280;47574;52.090;5.244;2023-03-26T10:17:24;100260.0;;;14.35;59.37
61676;BME280;47574;52.090;5.244;2023-03-26T10:19:21;100264.0;;;14.41;59.06
61676;BME280;47574;52.090;5.244;2023-03-26T10:21:08;100264.0;;;14.38;59.31
61676;BME280;47574;52.090;5.244;2023-03-26T10:22:59;100265.0;;;14.22;59.7
61676;BME280;47574;52.090;5.244;2023-03-26T10:27:13;100267.0;;;14.4;59.56
61676;BME280;47574;52.090;5.244;2023-03-26T10:32:05;100268.0;;;14.62;58.81
61676;BME280;47574;52.090;5.244;2023-03-26T10:33:53;100274.0;;;14.64;59.11
61676;BME280;47574;52.090;5.244;2023-03-26T10:35:46;100274.0;;;14.64;59.41
61676;BME280;47574;52.090;5.244;2023-03-26T10:37:35;100278.0;;;14.6;59.04
61676;BME280;47574;52.090;5.244;2023-03-26T10:41:21;100277.0;;;14.26;59.25
61676;BME280;47574;52.090;5.244;2023-03-26T10:46:11;100285.0;;;14.34;58.68
61676;BME280;47574;52.090;5.244;2023-03-26T10:49:45;100278.0;;;14.24;58.64
61676;BME280;47574;52.090;5.244;2023-03-26T10:51:34;100283.0;;;14.16;58.66
61676;BME280;47574;52.090;5.244;2023-03-26T10:53:26;100286.0;;;14.31;58.61
61676;BME280;47574;52.090;5.244;2023-03-26T10:55:11;100286.0;;;14.15;58.84
61676;BME280;47574;52.090;5.244;2023-03-26T10:56:51;100290.0;;;14.24;58.74
61676;BME280;47574;52.090;5.244;2023-03-26T10:58:30;100289.0;;;14.04;58.6
61676;BME280;47574;52.090;5.244;2023-03-26T11:02:03;100295.0;;;14.14;58.18
61676;BME280;47574;52.090;5.244;2023-03-26T11:03:49;100294.0;;;14.15;58.2
61676;BME280;47574;52.090;5.244;2023-03-26T11:05:43;100300.0;;;13.98;58.63
61676;BME280;47574;52.090;5.244;2023-03-26T11:07:27;100305.0;;;13.96;58.81
61676;BME280;47574;52.090;5.244;2023-03-26T11:09:21;100310.0;;;13.9;58.74
61676;BME280;47574;52.090;5.244;2023-03-26T11:14:36;100305.0;;;13.84;58.64
61676;BME280;47574;52.090;5.244;2023-03-26T11:16:24;100305.0;;;13.86;58.64
61676;BME280;47574;52.090;5.244;2023-03-26T11:18:12;100306.0;;;14.07;58.5
61676;BME280;47574;52.090;5.244;2023-03-26T11:19:55;100307.0;;;13.74;59.5
61676;BME280;47574;52.090;5.244;2023-03-26T11:21:38;100314.0;;;13.92;59.02
61676;BME280;47574;52.090;5.244;2023-03-26T11:25:25;100310.0;;;14.01;59.2
61676;BME280;47574;52.090;5.244;2023-03-26T11:28:03;100318.0;;;14.22;58.49
61676;BME280;47574;52.090;5.244;2023-03-26T11:31:39;100318.0;;;14.44;58.53
61676;BME280;47574;52.090;5.244;2023-03-26T11:33:25;100321.0;;;14.41;58.34
61676;BME280;47574;52.090;5.244;2023-03-26T11:35:06;100321.0;;;14.52;58.11
61676;BME280;47574;52.090;5.244;2023-03-26T11:36:52;100323.0;;;14.5;58.11
61676;BME280;47574;52.090;5.244;2023-03-26T11:38:33;100327.0;;;14.47;58.55
61676;BME280;47574;52.090;5.244;2023-03-26T11:42:03;100331.0;;;14.42;58.12
61676;BME280;47574;52.090;5.244;2023-03-26T11:43:42;100334.0;;;14.45;58.3
61676;BME280;47574;52.090;5.244;2023-03-26T11:45:22;100331.0;;;14.35;58.19
61676;BME280;47574;52.090;5.244;2023-03-26T11:47:05;100342.0;;;14.09;58.39
61676;BME280;47574;52.090;5.244;2023-03-26T11:48:47;100336.0;;;13.79;58.25
61676;BME280;47574;52.090;5.244;2023-03-26T11:52:05;100340.0;;;14.1;57.67
61676;BME280;47574;52.090;5.244;2023-03-26T11:53:44;100342.0;;;13.67;58.61